sensor_id;sensor_type;location;lat;lon;timestamp;P1;durP1;ratioP1;P2;durP2;ratioP2
68765;SDS011;55756;45.582;11.484;2023-04-22T00:02:07;11.60;;;7.07;;
68765;SDS011;55756;45.582;11.484;2023-04-22T00:04:32;10.20;;;6.60;;
68765;SDS011;55756;45.582;11.484;2023-04-22T00:06:58;10.48;;;6.20;;
68765;SDS011;55756;45.582;11.484;2023-04-22T00:09:24;10.20;;;5.85;;
68765;SDS011;55756;45.582;11.484;2023-04-22T00:11:51;11.00;;;6.25;;
68765;SDS011;55756;45.582;11.484;2023-04-22T00:14:17;12.10;;;5.80;;
68765;SDS011;55756;45.582;11.484;2023-04-22T00:16:42;12.35;;;5.63;;
68765;SDS011;55756;45.582;11.484;2023-04-22T00:19:08;9.70;;;5.63;;
68765;SDS011;55756;45.582;11.484;2023-04-22T00:21:34;9.75;;;5.70;;
68765;SDS011;55756;45.582;11.484;2023-04-22T00:24:00;9.20;;;5.75;;
68765;SDS011;55756;45.582;11.484;2023-04-22T00:26:26;11.40;;;5.82;;
68765;SDS011;55756;45.582;11.484;2023-04-22T00:28:51;9.48;;;5.20;;
68765;SDS011;55756;45.582;11.484;2023-04-22T00:31:17;10.18;;;5.53;;
68765;SDS011;55756;45.582;11.484;2023-04-22T00:33:43;9.10;;;5.30;;
68765;SDS011;55756;45.582;11.484;2023-04-22T00:36:09;9.10;;;5.15;;
68765;SDS011;55756;45.582;11.484;2023-04-22T00:38:34;11.50;;;4.88;;
68765;SDS011;55756;45.582;11.484;2023-04-22T00:41:01;8.18;;;4.65;;
68765;SDS011;55756;45.582;11.484;2023-04-22T00:43:27;8.45;;;4.63;;
68765;SDS011;55756;45.582;11.484;2023-04-22T00:45:52;9.32;;;4.68;;
68765;SDS011;55756;45.582;11.484;2023-04-22T00:48:18;10.95;;;4.65;;
68765;SDS011;55756;45.582;11.484;2023-04-22T00:50:44;9.45;;;4.65;;
68765;SDS011;55756;45.582;11.484;2023-04-22T00:53:10;8.77;;;5.00;;
68765;SDS011;55756;45.582;11.484;2023-04-22T00:55:36;8.93;;;4.68;;
68765;SDS011;55756;45.582;11.484;2023-04-22T00:58:02;9.13;;;4.97;;
68765;SDS011;55756;45.582;11.484;2023-04-22T01:00:28;9.82;;;4.90;;
68765;SDS011;55756;45.582;11.484;2023-04-22T01:02:54;8.25;;;5.00;;
68765;SDS011;55756;45.582;11.484;2023-04-22T01:05:21;8.48;;;4.90;;
68765;SDS011;55756;45.582;11.484;2023-04-22T01:07:47;9.35;;;4.70;;
68765;SDS011;55756;45.582;11.484;2023-04-22T01:10:13;8.63;;;5.00;;
68765;SDS011;55756;45.582;11.484;2023-04-22T01:12:39;9.60;;;4.80;;
68765;SDS011;55756;45.582;11.484;2023-04-22T01:15:05;8.35;;;4.90;;
68765;SDS011;55756;45.582;11.484;2023-04-22T01:17:31;9.65;;;5.60;;
68765;SDS011;55756;45.582;11.484;2023-04-22T01:19:58;8.38;;;5.43;;
68765;SDS011;55756;45.582;11.484;2023-04-22T01:22:24;11.18;;;5.47;;
68765;SDS011;55756;45.582;11.484;2023-04-22T01:24:54;10.05;;;5.40;;
68765;SDS011;55756;45.582;11.484;2023-04-22T01:27:20;9.63;;;5.22;;
68765;SDS011;55756;45.582;11.484;2023-04-22T01:29:46;9.05;;;5.18;;
68765;SDS011;55756;45.582;11.484;2023-04-22T01:32:12;9.77;;;5.47;;
68765;SDS011;55756;45.582;11.484;2023-04-22T01:34:38;11.32;;;5.60;;
68765;SDS011;55756;45.582;11.484;2023-04-22T01:37:05;8.27;;;5.32;;
68765;SDS011;55756;45.582;11.484;2023-04-22T01:39:31;10.15;;;5.53;;
68765;SDS011;55756;45.582;11.484;2023-04-22T01:41:57;9.65;;;5.38;;
68765;SDS011;55756;45.582;11.484;2023-04-22T01:44:24;9.30;;;5.68;;
68765;SDS011;55756;45.582;11.484;2023-04-22T01:46:50;10.77;;;5.53;;
68765;SDS011;55756;45.582;11.484;2023-04-22T01:49:16;10.80;;;5.72;;
68765;SDS011;55756;45.582;11.484;2023-04-22T01:51:42;11.25;;;6.05;;
68765;SDS011;55756;45.582;11.484;2023-04-22T01:54:08;10.65;;;5.15;;
68765;SDS011;55756;45.582;11.484;2023-04-22T01:56:34;10.60;;;5.53;;
68765;SDS011;55756;45.582;11.484;2023-04-22T01:59:02;8.48;;;5.13;;
68765;SDS011;55756;45.582;11.484;2023-04-22T02:01:32;9.18;;;4.95;;
68765;SDS011;55756;45.582;11.484;2023-04-22T02:03:58;9.35;;;5.25;;
68765;SDS011;55756;45.582;11.484;2023-04-22T02:06:24;8.55;;;4.75;;
68765;SDS011;55756;45.582;11.484;2023-04-22T02:08:51;9.07;;;5.13;;
68765;SDS011;55756;45.582;11.484;2023-04-22T02:11:17;8.48;;;4.88;;
68765;SDS011;55756;45.582;11.484;2023-04-22T02:13:43;9.95;;;4.95;;
68765;SDS011;55756;45.582;11.484;2023-04-22T02:16:09;8.70;;;4.68;;
68765;SDS011;55756;45.582;11.484;2023-04-22T02:18:35;9.50;;;4.93;;
68765;SDS011;55756;45.582;11.484;2023-04-22T02:21:01;8.70;;;4.90;;
68765;SDS011;55756;45.582;11.484;2023-04-22T02:23:27;9.82;;;4.53;;
68765;SDS011;55756;45.582;11.484;2023-04-22T02:25:53;8.32;;;4.82;;
68765;SDS011;55756;45.582;11.484;2023-04-22T02:28:20;8.00;;;4.72;;
68765;SDS011;55756;45.582;11.484;2023-04-22T02:30:45;10.90;;;5.07;;
68765;SDS011;55756;45.582;11.484;2023-04-22T02:33:11;9.05;;;5.30;;
68765;SDS011;55756;45.582;11.484;2023-04-22T02:35:37;9.60;;;5.22;;
68765;SDS011;55756;45.582;11.484;2023-04-22T02:38:03;9.35;;;5.57;;
68765;SDS011;55756;45.582;11.484;2023-04-22T02:40:29;9.60;;;5.13;;
68765;SDS011;55756;45.582;11.484;2023-04-22T02:42:55;9.85;;;5.65;;
68765;SDS011;55756;45.582;11.484;2023-04-22T02:45:21;11.30;;;5.93;;
68765;SDS011;55756;45.582;11.484;2023-04-22T02:47:46;9.85;;;5.60;;
68765;SDS011;55756;45.582;11.484;2023-04-22T02:50:13;10.32;;;5.35;;
68765;SDS011;55756;45.582;11.484;2023-04-22T02:52:39;10.10;;;5.63;;
68765;SDS011;55756;45.582;11.484;2023-04-22T02:55:05;10.95;;;5.30;;
68765;SDS011;55756;45.582;11.484;2023-04-22T02:57:32;9.07;;;5.15;;
68765;SDS011;55756;45.582;11.484;2023-04-22T02:59:57;9.70;;;5.25;;
68765;SDS011;55756;45.582;11.484;2023-04-22T03:02:23;8.93;;;5.45;;
68765;SDS011;55756;45.582;11.484;2023-04-22T03:05:01;9.38;;;5.40;;
68765;SDS011;55756;45.582;11.484;2023-04-22T03:07:28;10.50;;;5.70;;
68765;SDS011;55756;45.582;11.484;2023-04-22T03:09:54;10.07;;;5.53;;
68765;SDS011;55756;45.582;11.484;2023-04-22T03:12:20;9.40;;;5.40;;
68765;SDS011;55756;45.582;11.484;2023-04-22T03:14:46;11.52;;;6.70;;
68765;SDS011;55756;45.582;11.484;2023-04-22T03:17:13;13.10;;;8.50;;
68765;SDS011;55756;45.582;11.484;2023-04-22T03:19:39;13.82;;;8.10;;
68765;SDS011;55756;45.582;11.484;2023-04-22T03:22:04;19.60;;;10.15;;
68765;SDS011;55756;45.582;11.484;2023-04-22T03:24:32;13.60;;;7.68;;
68765;SDS011;55756;45.582;11.484;2023-04-22T03:27:02;13.02;;;7.20;;
68765;SDS011;55756;45.582;11.484;2023-04-22T03:29:28;12.90;;;7.70;;
68765;SDS011;55756;45.582;11.484;2023-04-22T03:31:54;10.10;;;6.03;;
68765;SDS011;55756;45.582;11.484;2023-04-22T03:34:20;10.30;;;6.00;;
68765;SDS011;55756;45.582;11.484;2023-04-22T03:36:47;10.80;;;5.80;;
68765;SDS011;55756;45.582;11.484;2023-04-22T03:39:13;11.27;;;5.13;;
68765;SDS011;55756;45.582;11.484;2023-04-22T03:41:41;10.13;;;5.45;;
68765;SDS011;55756;45.582;11.484;2023-04-22T03:44:10;9.55;;;5.18;;
68765;SDS011;55756;45.582;11.484;2023-04-22T03:46:36;9.07;;;5.10;;
68765;SDS011;55756;45.582;11.484;2023-04-22T03:49:13;9.23;;;5.30;;
68765;SDS011;55756;45.582;11.484;2023-04-22T03:51:39;9.48;;;5.57;;
68765;SDS011;55756;45.582;11.484;2023-04-22T03:54:10;8.85;;;5.38;;
68765;SDS011;55756;45.582;11.484;2023-04-22T03:56:42;9.77;;;5.30;;
68765;SDS011;55756;45.582;11.484;2023-04-22T03:59:07;11.65;;;5.28;;
68765;SDS011;55756;45.582;11.484;2023-04-22T04:01:34;11.23;;;6.63;;
68765;SDS011;55756;45.582;11.484;2023-04-22T04:04:03;10.15;;;6.20;;
68765;SDS011;55756;45.582;11.484;2023-04-22T04:06:37;10.68;;;5.95;;
68765;SDS011;55756;45.582;11.484;2023-04-22T04:09:03;11.70;;;6.57;;
68765;SDS011;55756;45.582;11.484;2023-04-22T04:11:30;9.90;;;5.88;;
68765;SDS011;55756;45.582;11.484;2023-04-22T04:13:56;9.68;;;5.93;;
68765;SDS011;55756;45.582;11.484;2023-04-22T04:16:33;11.85;;;5.80;;
68765;SDS011;55756;45.582;11.484;2023-04-22T04:19:07;10.07;;;6.00;;
68765;SDS011;55756;45.582;11.484;2023-04-22T04:21:35;11.48;;;6.18;;
68765;SDS011;55756;45.582;11.484;2023-04-22T04:24:03;10.48;;;5.75;;
68765;SDS011;55756;45.582;11.484;2023-04-22T04:26:32;9.70;;;6.07;;
68765;SDS011;55756;45.582;11.484;2023-04-22T11:21:13;20.67;;;12.88;;
68765;SDS011;55756;45.582;11.484;2023-04-22T11:24:52;21.92;;;13.75;;
68765;SDS011;55756;45.582;11.484;2023-04-22T12:48:10;19.38;;;10.68;;
68765;SDS011;55756;45.582;11.484;2023-04-22T12:50:36;16.27;;;10.93;;
68765;SDS011;55756;45.582;11.484;2023-04-22T12:53:02;19.73;;;11.10;;
68765;SDS011;55756;45.582;11.484;2023-04-22T12:55:28;17.48;;;10.68;;
68765;SDS011;55756;45.582;11.484;2023-04-22T12:57:55;15.65;;;10.50;;
68765;SDS011;55756;45.582;11.484;2023-04-22T13:00:21;17.35;;;10.43;;
68765;SDS011;55756;45.582;11.484;2023-04-22T13:02:49;16.27;;;10.23;;
68765;SDS011;55756;45.582;11.484;2023-04-22T13:05:16;16.00;;;10.43;;
68765;SDS011;55756;45.582;11.484;2023-04-22T13:07:52;15.27;;;9.63;;
68765;SDS011;55756;45.582;11.484;2023-04-22T13:10:18;16.25;;;10.40;;
68765;SDS011;55756;45.582;11.484;2023-04-22T13:12:46;15.70;;;9.32;;
68765;SDS011;55756;45.582;11.484;2023-04-22T13:15:18;15.73;;;9.40;;
68765;SDS011;55756;45.582;11.484;2023-04-22T13:18:00;14.48;;;10.10;;
68765;SDS011;55756;45.582;11.484;2023-04-22T13:29:05;14.75;;;9.30;;
68765;SDS011;55756;45.582;11.484;2023-04-22T13:32:22;15.05;;;9.45;;
68765;SDS011;55756;45.582;11.484;2023-04-22T13:42:45;12.00;;;7.57;;
68765;SDS011;55756;45.582;11.484;2023-04-22T13:48:58;13.30;;;8.85;;
68765;SDS011;55756;45.582;11.484;2023-04-22T13:51:23;15.93;;;9.13;;
68765;SDS011;55756;45.582;11.484;2023-04-22T13:53:49;13.75;;;8.45;;
68765;SDS011;55756;45.582;11.484;2023-04-22T13:56:15;12.55;;;8.13;;
68765;SDS011;55756;45.582;11.484;2023-04-22T13:58:41;16.13;;;8.45;;
68765;SDS011;55756;45.582;11.484;2023-04-22T14:01:07;14.65;;;8.52;;
68765;SDS011;55756;45.582;11.484;2023-04-22T14:03:41;14.80;;;8.40;;
68765;SDS011;55756;45.582;11.484;2023-04-22T14:52:08;12.38;;;6.90;;
68765;SDS011;55756;45.582;11.484;2023-04-22T14:54:34;11.50;;;7.13;;
68765;SDS011;55756;45.582;11.484;2023-04-22T14:57:23;12.73;;;7.30;;
68765;SDS011;55756;45.582;11.484;2023-04-22T15:03:42;12.77;;;6.55;;
68765;SDS011;55756;45.582;11.484;2023-04-22T15:12:48;12.40;;;7.83;;
68765;SDS011;55756;45.582;11.484;2023-04-22T15:15:14;12.95;;;7.90;;
68765;SDS011;55756;45.582;11.484;2023-04-22T15:17:41;13.02;;;8.13;;
68765;SDS011;55756;45.582;11.484;2023-04-22T15:20:07;13.75;;;8.35;;
68765;SDS011;55756;45.582;11.484;2023-04-22T15:22:33;13.32;;;8.60;;
68765;SDS011;55756;45.582;11.484;2023-04-22T15:25:00;14.05;;;8.48;;
68765;SDS011;55756;45.582;11.484;2023-04-22T15:27:26;13.35;;;8.27;;
68765;SDS011;55756;45.582;11.484;2023-04-22T15:29:54;12.73;;;8.20;;
68765;SDS011;55756;45.582;11.484;2023-04-22T15:32:21;13.70;;;7.43;;
68765;SDS011;55756;45.582;11.484;2023-04-22T15:34:47;15.05;;;8.60;;
68765;SDS011;55756;45.582;11.484;2023-04-22T15:37:13;13.07;;;8.05;;
68765;SDS011;55756;45.582;11.484;2023-04-22T15:39:42;12.48;;;7.45;;
68765;SDS011;55756;45.582;11.484;2023-04-22T15:42:08;13.07;;;8.02;;
68765;SDS011;55756;45.582;11.484;2023-04-22T15:44:34;12.98;;;8.63;;
68765;SDS011;55756;45.582;11.484;2023-04-22T15:47:11;13.63;;;9.10;;
68765;SDS011;55756;45.582;11.484;2023-04-22T15:49:37;13.95;;;9.50;;
68765;SDS011;55756;45.582;11.484;2023-04-22T15:52:03;15.65;;;8.77;;
68765;SDS011;55756;45.582;11.484;2023-04-22T15:58:22;14.18;;;8.43;;
68765;SDS011;55756;45.582;11.484;2023-04-22T16:00:55;12.98;;;8.25;;
68765;SDS011;55756;45.582;11.484;2023-04-22T16:03:52;15.93;;;8.57;;
68765;SDS011;55756;45.582;11.484;2023-04-22T16:06:45;13.10;;;8.07;;
68765;SDS011;55756;45.582;11.484;2023-04-22T16:09:17;13.33;;;8.57;;
68765;SDS011;55756;45.582;11.484;2023-04-22T16:11:56;15.25;;;9.05;;
68765;SDS011;55756;45.582;11.484;2023-04-22T16:14:22;15.25;;;9.18;;
68765;SDS011;55756;45.582;11.484;2023-04-22T16:17:22;14.40;;;8.85;;
68765;SDS011;55756;45.582;11.484;2023-04-22T16:20:06;13.57;;;8.10;;
68765;SDS011;55756;45.582;11.484;2023-04-22T16:22:44;15.38;;;8.48;;
68765;SDS011;55756;45.582;11.484;2023-04-22T16:25:21;14.27;;;8.90;;
68765;SDS011;55756;45.582;11.484;2023-04-22T16:27:57;14.57;;;8.30;;
68765;SDS011;55756;45.582;11.484;2023-04-22T18:21:28;20.75;;;13.32;;
68765;SDS011;55756;45.582;11.484;2023-04-22T18:24:02;19.27;;;13.50;;
68765;SDS011;55756;45.582;11.484;2023-04-22T18:26:52;20.15;;;13.45;;
68765;SDS011;55756;45.582;11.484;2023-04-22T18:29:35;20.65;;;14.10;;
68765;SDS011;55756;45.582;11.484;2023-04-22T18:32:20;23.40;;;14.30;;
68765;SDS011;55756;45.582;11.484;2023-04-22T18:40:07;21.05;;;14.02;;
68765;SDS011;55756;45.582;11.484;2023-04-22T18:42:37;20.88;;;14.05;;
68765;SDS011;55756;45.582;11.484;2023-04-22T18:47:48;22.60;;;14.32;;
68765;SDS011;55756;45.582;11.484;2023-04-22T18:50:26;19.70;;;13.68;;
